Airport Information

KMFR - Rogue Valley Intl Medford Airport

KMFR 241253Z 00000KT 10SM CLR 19/12 A3002 RMK AO2 SLP150 T01890122


  • General Information

  • Coordinates: N 42°22'27"/ W 122°52'24"
  • Location: N/A
  • Surveyed Elevation: 1335 MSL

Operations

Flow Name Active Runways Conditions

Green background denotes normal operations.


Common Frequencies

Callsign Frequency Position Name

More at the Document Center


Charts